createdAt,value
2023-01-17T07:44:41.410Z,91.12
2023-01-17T07:45:40.261Z,91.06
2023-01-17T07:46:40.338Z,90.64
2023-01-17T07:47:40.252Z,90.91
2023-01-17T07:48:40.231Z,90.85
2023-01-17T07:49:40.232Z,90.81
2023-01-17T07:50:40.231Z,90.60
2023-01-17T07:51:40.207Z,90.39
2023-01-17T07:52:40.172Z,90.39
2023-01-17T07:53:40.220Z,90.39
2023-01-17T07:54:40.195Z,90.81
2023-01-17T07:55:40.156Z,90.66
2023-01-17T07:56:40.145Z,90.60
2023-01-17T07:57:40.122Z,90.25
2023-01-17T07:58:40.134Z,90.35
2023-01-17T07:59:40.098Z,90.35
2023-01-17T08:00:40.168Z,90.56
2023-01-17T08:01:40.180Z,90.56
2023-01-17T08:02:40.064Z,90.83
2023-01-17T08:03:40.303Z,90.66
2023-01-17T08:04:40.045Z,90.87
2023-01-17T08:05:40.147Z,90.52
2023-01-17T08:06:40.049Z,90.52
2023-01-17T08:07:40.118Z,90.41
2023-01-17T08:08:40.127Z,90.45
2023-01-17T08:09:40.000Z,90.31
2023-01-17T08:10:39.972Z,90.31
2023-01-17T08:11:39.990Z,89.89
2023-01-17T08:12:39.957Z,90.00
2023-01-17T08:13:39.941Z,89.48
2023-01-17T08:14:39.943Z,88.85
2023-01-17T08:15:39.920Z,89.06
2023-01-17T08:16:40.068Z,89.48
2023-01-17T08:17:39.915Z,89.06
2023-01-17T08:18:39.879Z,89.37
2023-01-17T08:19:39.890Z,89.06
2023-01-17T08:20:39.878Z,89.27
2023-01-17T08:21:39.867Z,89.17
2023-01-17T08:22:39.841Z,88.81
2023-01-17T08:23:39.848Z,88.60
2023-01-17T08:24:39.832Z,88.71
2023-01-17T08:25:39.807Z,89.12
2023-01-17T08:26:39.825Z,88.92
2023-01-17T08:27:39.797Z,88.60
2023-01-17T08:28:39.770Z,88.60
2023-01-17T08:29:39.770Z,88.92
2023-01-17T08:30:39.760Z,88.81
2023-01-17T08:31:39.853Z,88.60
2023-01-17T08:32:39.745Z,88.92
2023-01-17T08:33:39.728Z,88.87
2023-01-17T08:34:39.714Z,88.35
2023-01-17T08:35:39.740Z,88.87
2023-01-17T08:36:39.699Z,89.18
2023-01-17T08:37:39.685Z,88.35
2023-01-17T08:38:39.672Z,89.08
2023-01-17T08:39:39.659Z,88.15
2023-01-17T08:40:39.654Z,87.94
2023-01-17T08:41:39.647Z,88.31
2023-01-17T08:42:39.623Z,87.01
2023-01-17T08:43:39.604Z,86.96
2023-01-17T08:44:39.607Z,87.27
2023-01-17T08:45:39.625Z,86.65
2023-01-17T08:46:39.579Z,86.76
2023-01-17T08:47:39.559Z,86.76
2023-01-17T08:48:39.581Z,86.09
2023-01-17T08:49:39.539Z,85.26
2023-01-17T08:50:39.524Z,85.36
2023-01-17T08:51:39.527Z,84.91
2023-01-17T08:52:39.511Z,84.60
2023-01-17T08:53:39.492Z,84.70
2023-01-17T08:54:39.508Z,85.12
2023-01-17T08:55:39.476Z,86.16
2023-01-17T08:56:39.464Z,85.64
2023-01-17T08:57:39.502Z,85.02
2023-01-17T08:58:39.445Z,85.12
2023-01-17T08:59:39.436Z,85.19
2023-01-17T09:00:39.440Z,83.67
2023-01-17T09:01:39.578Z,83.77
2023-01-17T09:02:39.413Z,83.53
2023-01-17T09:03:40.918Z,83.46
2023-01-17T09:04:39.456Z,83.53
2023-01-17T09:05:39.358Z,83.67
2023-01-17T09:06:39.376Z,83.67
2023-01-17T09:07:39.371Z,83.98
2023-01-17T09:08:39.328Z,82.84
2023-01-17T09:09:39.324Z,82.73
2023-01-17T09:10:39.295Z,82.63
2023-01-17T09:11:39.294Z,83.46
2023-01-17T09:12:39.298Z,82.94
2023-01-17T09:13:39.295Z,82.84
2023-01-17T09:14:39.254Z,82.94
2023-01-17T09:15:39.253Z,83.25
2023-01-17T09:16:39.271Z,83.04
2023-01-17T09:17:39.255Z,82.32
2023-01-17T09:18:39.207Z,82.32
2023-01-17T09:19:39.207Z,81.90
2023-01-17T09:20:39.203Z,82.21
2023-01-17T09:21:39.178Z,81.70
2023-01-17T09:22:39.191Z,81.80
2023-01-17T09:23:39.182Z,82.11
2023-01-17T09:24:39.149Z,82.42
2023-01-17T09:25:39.137Z,82.39
2023-01-17T09:26:39.116Z,82.42
2023-01-17T09:27:39.135Z,82.39
2023-01-17T09:28:39.104Z,82.07
2023-01-17T09:29:39.106Z,81.04
2023-01-17T09:30:39.129Z,80.52
2023-01-17T09:31:39.079Z,80.52
2023-01-17T09:32:39.081Z,80.93
2023-01-17T09:33:39.054Z,81.04
2023-01-17T09:34:39.042Z,80.62
2023-01-17T09:35:39.031Z,80.93
2023-01-17T09:36:39.034Z,80.73
2023-01-17T09:37:39.030Z,80.31
2023-01-17T09:38:38.994Z,80.93
2023-01-17T09:39:38.993Z,81.14
2023-01-17T09:40:38.970Z,81.24
2023-01-17T09:41:38.950Z,80.41
2023-01-17T09:42:38.961Z,80.31
2023-01-17T09:43:40.833Z,80.93
2023-01-17T09:44:38.925Z,80.21
2023-01-17T09:45:38.941Z,80.93
2023-01-17T09:46:38.904Z,80.89
2023-01-17T09:47:38.902Z,80.16
2023-01-17T09:48:38.916Z,80.99
2023-01-17T09:49:38.869Z,80.47
2023-01-17T09:50:38.848Z,80.89
2023-01-17T09:51:38.838Z,79.55
2023-01-17T09:52:38.885Z,79.65
2023-01-17T09:53:38.812Z,79.65
2023-01-17T09:54:38.803Z,80.06
2023-01-17T09:55:38.800Z,80.37
2023-01-17T09:56:38.780Z,79.44
2023-01-17T09:57:38.780Z,79.24
2023-01-17T09:58:38.761Z,79.13
2023-01-17T09:59:38.753Z,79.75
2023-01-17T10:00:38.756Z,78.92
2023-01-17T10:01:38.908Z,78.92
2023-01-17T10:02:38.914Z,79.55
2023-01-17T10:03:38.996Z,79.51
2023-01-17T10:04:38.690Z,78.89
2023-01-17T10:05:38.690Z,78.27
2023-01-17T10:06:38.680Z,78.47
2023-01-17T10:07:38.686Z,78.30
2023-01-17T10:08:38.704Z,78.06
2023-01-17T10:09:38.641Z,78.51
2023-01-17T10:10:38.638Z,78.51
2023-01-17T10:11:38.624Z,78.06
2023-01-17T10:12:38.628Z,78.72
2023-01-17T10:13:38.641Z,78.37
2023-01-17T10:14:38.590Z,77.64
2023-01-17T10:15:38.563Z,77.50
2023-01-17T10:16:38.648Z,76.78
2023-01-17T10:17:38.576Z,77.40
2023-01-17T10:18:38.533Z,77.36
2023-01-17T10:19:38.530Z,76.53
2023-01-17T10:20:38.543Z,76.53
2023-01-17T10:21:38.522Z,76.50
2023-01-17T10:22:38.561Z,77.19
2023-01-17T10:23:38.487Z,76.01
2023-01-17T10:24:38.518Z,75.36
2023-01-17T10:25:38.461Z,73.77
2023-01-17T10:26:38.466Z,72.74
2023-01-17T10:27:38.470Z,71.67
2023-01-17T10:28:38.419Z,71.67
2023-01-17T10:29:38.407Z,71.75
2023-01-17T10:30:38.468Z,71.33
2023-01-17T10:31:38.385Z,71.30
2023-01-17T10:32:38.386Z,71.30
2023-01-17T10:33:38.370Z,71.51
2023-01-17T10:34:38.365Z,70.89
2023-01-17T10:35:38.334Z,70.99
2023-01-17T10:36:38.328Z,71.16
2023-01-17T10:37:38.325Z,71.26
2023-01-17T10:38:38.332Z,71.30
2023-01-17T10:39:38.292Z,72.26
2023-01-17T10:40:38.310Z,72.71
2023-01-17T10:41:38.293Z,73.22
2023-01-17T10:42:38.280Z,73.22
2023-01-17T10:43:38.255Z,73.15
2023-01-17T10:44:38.239Z,73.77
2023-01-17T10:45:38.236Z,73.67
2023-01-17T10:46:38.230Z,73.81
2023-01-17T10:47:38.228Z,74.02
2023-01-17T10:48:38.193Z,74.26
2023-01-17T10:49:38.177Z,74.77
2023-01-17T10:50:38.169Z,74.81
2023-01-17T10:51:38.154Z,74.71
2023-01-17T10:52:38.181Z,74.71
2023-01-17T10:53:38.130Z,75.22
2023-01-17T10:54:38.123Z,75.63
2023-01-17T10:55:38.108Z,75.32
2023-01-17T10:56:38.135Z,76.15
2023-01-17T10:57:38.108Z,76.46
2023-01-17T10:58:38.078Z,76.57
2023-01-17T10:59:38.083Z,76.50
2023-01-17T11:00:38.076Z,76.50
2023-01-17T11:01:38.185Z,77.33
2023-01-17T11:02:38.110Z,76.67
2023-01-17T11:03:38.032Z,76.98
2023-01-17T11:04:38.031Z,77.02
2023-01-17T11:05:37.994Z,76.88
2023-01-17T11:06:49.731Z,76.46
2023-01-17T11:07:40.138Z,75.92
2023-01-17T11:08:37.964Z,74.84
2023-01-17T11:09:37.981Z,74.74
2023-01-17T11:10:37.957Z,74.50
2023-01-17T11:11:37.930Z,74.67
2023-01-17T11:12:37.968Z,76.39
2023-01-17T11:13:37.906Z,78.39
2023-01-17T11:14:37.939Z,74.71
2023-01-17T11:15:37.909Z,73.43
2023-01-17T11:16:37.887Z,72.06
2023-01-17T11:17:37.875Z,72.13
2023-01-17T11:18:37.851Z,69.52
2023-01-17T11:19:37.850Z,67.74
2023-01-17T11:20:37.827Z,67.91
2023-01-17T11:21:37.813Z,67.26
2023-01-17T11:22:37.821Z,67.16
2023-01-17T11:23:37.803Z,65.48
2023-01-17T11:24:37.797Z,65.56
2023-01-17T11:25:37.784Z,64.84
2023-01-17T11:26:37.781Z,65.73
2023-01-17T11:27:37.771Z,66.52
2023-01-17T11:28:37.772Z,65.67
2023-01-17T11:29:37.735Z,65.77
2023-01-17T11:30:37.717Z,66.33
2023-01-17T11:31:37.715Z,65.41
2023-01-17T11:32:37.702Z,65.45
2023-01-17T11:33:37.677Z,63.88
2023-01-17T11:34:37.670Z,63.34
2023-01-17T11:35:37.664Z,61.70
2023-01-17T11:36:37.662Z,60.27
2023-01-17T11:37:37.655Z,59.25
2023-01-17T11:38:37.636Z,60.37
2023-01-17T11:39:37.610Z,60.37
2023-01-17T11:40:37.610Z,60.37
2023-01-17T11:41:37.598Z,60.44
2023-01-17T11:42:37.611Z,60.96
2023-01-17T11:43:37.579Z,60.75
2023-01-17T11:44:37.595Z,60.31
2023-01-17T11:45:37.557Z,59.16
2023-01-17T11:46:37.582Z,58.96
2023-01-17T11:47:37.524Z,58.75
2023-01-17T11:48:37.550Z,59.23
2023-01-17T11:49:37.512Z,59.03
2023-01-17T11:50:37.513Z,58.91
2023-01-17T11:51:37.491Z,58.39
2023-01-17T11:52:37.501Z,58.16
2023-01-17T11:53:37.471Z,58.44
2023-01-17T11:54:37.441Z,57.93
2023-01-17T11:55:37.443Z,57.90
2023-01-17T11:56:37.417Z,56.17
2023-01-17T11:57:37.427Z,56.58
2023-01-17T11:58:37.417Z,56.88
2023-01-17T11:59:37.401Z,56.04
2023-01-17T12:00:37.407Z,55.33
2023-01-17T12:01:37.371Z,54.72
2023-01-17T12:02:37.350Z,55.00
2023-01-17T12:03:37.449Z,55.81
2023-01-17T12:04:37.380Z,56.22
2023-01-17T12:05:37.324Z,53.98
2023-01-17T12:06:51.554Z,53.62
2023-01-17T12:07:38.307Z,54.16
2023-01-17T12:08:37.313Z,54.39
2023-01-17T12:09:37.266Z,55.15
2023-01-17T12:10:37.261Z,55.41
2023-01-17T12:11:37.244Z,56.18
2023-01-17T12:12:37.238Z,57.02
2023-01-17T12:13:37.256Z,58.12
2023-01-17T12:14:37.232Z,57.02
2023-01-17T12:15:37.243Z,58.07
2023-01-17T12:16:37.231Z,58.51
2023-01-17T12:17:37.190Z,58.95
2023-01-17T12:18:37.184Z,58.77
2023-01-17T12:19:37.187Z,60.64
2023-01-17T12:20:37.158Z,60.64
2023-01-17T12:21:37.129Z,61.05
2023-01-17T12:22:37.122Z,60.33
2023-01-17T12:23:37.117Z,60.51
2023-01-17T12:24:37.100Z,60.41
2023-01-17T12:25:37.102Z,62.49
2023-01-17T12:26:37.108Z,62.59
2023-01-17T12:27:37.064Z,60.75
2023-01-17T12:28:37.079Z,61.16
2023-01-17T12:29:37.040Z,61.67
2023-01-17T12:30:37.033Z,60.13
2023-01-17T12:31:37.113Z,60.47
2023-01-17T12:32:37.043Z,61.72
2023-01-17T12:33:37.031Z,61.32
2023-01-17T12:34:36.989Z,61.93
2023-01-17T12:35:36.973Z,61.21
2023-01-17T12:36:36.966Z,62.24
2023-01-17T12:37:37.152Z,62.31
2023-01-17T12:38:36.967Z,61.18
2023-01-17T12:39:36.992Z,61.42
2023-01-17T12:40:36.933Z,60.29
2023-01-17T12:41:36.912Z,61.99
2023-01-17T12:42:36.896Z,62.53
2023-01-17T12:43:36.896Z,63.28
2023-01-17T12:44:36.885Z,62.97
2023-01-17T12:45:36.858Z,63.69
2023-01-17T12:46:36.906Z,64.34
2023-01-17T12:47:36.848Z,64.31
2023-01-17T12:48:36.878Z,63.35
2023-01-17T12:49:36.830Z,63.59
2023-01-17T12:50:36.817Z,64.15
2023-01-17T12:51:36.801Z,63.74
2023-01-17T12:52:36.783Z,64.22
2023-01-17T12:53:36.801Z,63.60
2023-01-17T12:54:36.825Z,62.83
2023-01-17T12:55:36.770Z,61.05
2023-01-17T12:56:36.738Z,59.72
2023-01-17T12:57:36.745Z,60.70
2023-01-17T12:58:36.739Z,60.49
2023-01-17T12:59:36.701Z,62.27
2023-01-17T13:00:36.749Z,61.88
2023-01-17T13:01:36.900Z,62.77
2023-01-17T13:02:36.681Z,63.62
2023-01-17T13:03:36.684Z,64.34
2023-01-17T13:04:42.013Z,64.89
2023-01-17T13:05:37.629Z,65.53
2023-01-17T13:06:36.623Z,66.15
2023-01-17T13:07:36.616Z,65.43
2023-01-17T13:08:36.616Z,65.61
2023-01-17T13:09:36.621Z,64.65
2023-01-17T13:10:36.599Z,64.41
2023-01-17T13:11:36.615Z,63.39
2023-01-17T13:12:36.588Z,63.15
2023-01-17T13:13:36.566Z,63.67
2023-01-17T13:14:36.619Z,63.64
2023-01-17T13:15:36.521Z,62.85
2023-01-17T13:16:36.536Z,61.62
2023-01-17T13:17:36.494Z,61.90
2023-01-17T13:18:36.503Z,61.98
2023-01-17T13:19:36.485Z,60.61
2023-01-17T13:20:36.503Z,61.20
2023-01-17T13:21:36.472Z,59.15
2023-01-17T13:22:36.439Z,58.36
2023-01-17T13:23:36.437Z,58.03
2023-01-17T13:24:36.449Z,57.84
2023-01-17T13:25:36.401Z,58.07
2023-01-17T13:26:36.525Z,58.31
2023-01-17T13:27:36.399Z,59.00
2023-01-17T13:28:36.400Z,59.41
2023-01-17T13:29:36.373Z,58.90
2023-01-17T13:30:36.361Z,58.26
2023-01-17T13:31:36.393Z,56.92
2023-01-17T13:32:36.339Z,55.26
2023-01-17T13:33:36.339Z,55.87
2023-01-17T13:34:36.316Z,55.98
2023-01-17T13:35:36.304Z,56.49
2023-01-17T13:36:36.319Z,55.02
2023-01-17T13:37:36.273Z,55.85
2023-01-17T13:38:36.285Z,55.36
2023-01-17T13:39:36.239Z,56.15
2023-01-17T13:40:36.244Z,56.35
2023-01-17T13:41:36.231Z,57.00
2023-01-17T13:42:36.226Z,55.56
2023-01-17T13:43:36.236Z,55.62
2023-01-17T13:44:36.202Z,56.90
2023-01-17T13:45:36.330Z,58.36
2023-01-17T13:46:36.165Z,58.93
2023-01-17T13:47:36.170Z,59.27
2023-01-17T13:48:36.173Z,59.81
2023-01-17T13:49:36.124Z,60.97
2023-01-17T13:50:36.130Z,61.52
2023-01-17T13:51:36.117Z,62.57
2023-01-17T13:52:36.125Z,63.95
2023-01-17T13:53:36.111Z,63.95
2023-01-17T13:54:36.092Z,64.36
2023-01-17T13:55:36.059Z,64.04
2023-01-17T13:56:36.081Z,64.39
2023-01-17T13:57:36.076Z,64.39
2023-01-17T13:58:36.059Z,66.04
2023-01-17T13:59:36.035Z,65.55
2023-01-17T14:00:36.065Z,64.73
2023-01-17T14:01:36.118Z,64.83
2023-01-17T14:02:36.170Z,65.37
2023-01-17T14:03:35.990Z,66.10
2023-01-17T14:04:35.969Z,65.79
2023-01-17T14:05:35.961Z,66.10
2023-01-17T14:06:35.954Z,66.41
2023-01-17T14:07:35.928Z,66.30
2023-01-17T14:08:35.965Z,66.72
2023-01-17T14:09:35.906Z,66.82
2023-01-17T14:10:35.907Z,65.97
2023-01-17T14:11:35.891Z,65.17
2023-01-17T14:12:35.870Z,65.06
2023-01-17T14:13:35.910Z,64.86
2023-01-17T14:14:35.844Z,65.06
2023-01-17T14:15:35.837Z,65.48
2023-01-17T14:16:35.896Z,65.27
2023-01-17T14:17:35.847Z,65.06
2023-01-17T14:18:35.811Z,64.45
2023-01-17T14:19:35.798Z,64.89
2023-01-17T14:20:35.788Z,66.00
2023-01-17T14:21:35.791Z,66.72
2023-01-17T14:22:35.779Z,66.93
2023-01-17T14:23:35.763Z,66.75
2023-01-17T14:24:35.751Z,66.33
2023-01-17T14:25:35.736Z,67.16
2023-01-17T14:26:36.521Z,66.44
2023-01-17T14:27:36.994Z,66.54
2023-01-17T14:28:35.707Z,66.54
2023-01-17T14:29:35.679Z,67.47
2023-01-17T14:30:35.678Z,67.88
2023-01-17T14:31:35.725Z,67.78
2023-01-17T14:32:35.671Z,67.19
2023-01-17T14:33:35.632Z,67.16
2023-01-17T14:34:35.619Z,67.71
2023-01-17T14:35:35.630Z,67.30
2023-01-17T14:36:35.598Z,66.26
2023-01-17T14:37:35.621Z,65.44
2023-01-17T14:38:35.589Z,65.75
2023-01-17T14:39:35.580Z,66.26
2023-01-17T14:40:35.596Z,65.95
2023-01-17T14:41:35.543Z,66.06
2023-01-17T14:42:35.560Z,66.99
2023-01-17T14:43:35.526Z,66.16
2023-01-17T14:44:35.518Z,66.67
2023-01-17T14:45:35.561Z,66.26
2023-01-17T14:46:35.481Z,65.47
2023-01-17T14:47:35.502Z,65.88
2023-01-17T14:48:35.472Z,66.09
2023-01-17T14:49:35.475Z,66.16
2023-01-17T14:50:35.469Z,66.50
2023-01-17T14:51:35.432Z,67.02
2023-01-17T14:52:35.441Z,67.33
2023-01-17T14:53:35.409Z,66.91
2023-01-17T14:54:35.390Z,66.60
2023-01-17T14:55:35.404Z,66.81
2023-01-17T14:56:35.405Z,67.43
2023-01-17T14:57:35.405Z,67.95
2023-01-17T14:58:35.360Z,67.95
2023-01-17T14:59:35.345Z,67.64
2023-01-17T15:00:35.337Z,67.54
2023-01-17T15:01:35.405Z,67.95
2023-01-17T15:02:35.585Z,67.95
2023-01-17T15:03:35.320Z,67.64
2023-01-17T15:04:35.289Z,68.36
2023-01-17T15:05:35.309Z,68.57
2023-01-17T15:06:35.268Z,68.26
2023-01-17T15:07:35.261Z,68.57
2023-01-17T15:08:35.250Z,68.05
2023-01-17T15:09:35.238Z,68.57
2023-01-17T15:10:35.226Z,68.19
2023-01-17T15:11:35.216Z,68.70
2023-01-17T15:12:35.235Z,68.49
2023-01-17T15:13:43.852Z,68.08
2023-01-17T15:14:36.163Z,67.36
2023-01-17T15:15:35.182Z,66.63
2023-01-17T15:16:35.261Z,66.94
2023-01-17T15:17:35.149Z,67.98
2023-01-17T15:18:35.136Z,68.70
2023-01-17T15:19:35.113Z,69.95
2023-01-17T15:20:35.099Z,69.01
2023-01-17T15:21:35.089Z,68.91
2023-01-17T15:22:35.099Z,70.05
2023-01-17T15:23:35.096Z,69.84
2023-01-17T15:24:35.051Z,70.15
2023-01-17T15:25:35.067Z,68.70
2023-01-17T15:26:35.042Z,67.36
2023-01-17T15:27:35.041Z,66.63
2023-01-17T15:28:35.034Z,68.40
2023-01-17T15:29:35.002Z,67.60
2023-01-17T15:30:35.017Z,67.39
2023-01-17T15:31:34.991Z,66.77
2023-01-17T15:32:34.988Z,66.35
2023-01-17T15:33:34.970Z,66.05
2023-01-17T15:34:34.941Z,66.08
2023-01-17T15:35:34.930Z,66.49
2023-01-17T15:36:34.933Z,66.28
2023-01-17T15:37:34.935Z,66.69
2023-01-17T15:38:38.950Z,67.11
2023-01-17T15:39:34.909Z,67.83
2023-01-17T15:40:34.873Z,67.73
2023-01-17T15:41:34.889Z,68.04
2023-01-17T15:42:34.859Z,68.90
2023-01-17T15:43:34.839Z,69.01
2023-01-17T15:44:49.642Z,69.11
2023-01-17T15:45:35.816Z,69.21
2023-01-17T15:46:34.802Z,69.94
2023-01-17T15:47:34.819Z,70.15
2023-01-17T15:48:34.799Z,70.59
2023-01-17T15:49:34.777Z,70.49
2023-01-17T15:50:34.755Z,70.76
2023-01-17T15:51:34.762Z,70.18
2023-01-17T15:52:34.747Z,70.18
2023-01-17T15:53:34.743Z,70.07
2023-01-17T15:54:34.712Z,70.31
2023-01-17T15:55:34.710Z,70.52
2023-01-17T15:56:34.686Z,71.35
2023-01-17T15:57:36.564Z,71.45
2023-01-17T15:58:34.680Z,71.45
2023-01-17T15:59:34.659Z,71.25
2023-01-17T16:00:34.676Z,71.77
2023-01-17T16:01:34.796Z,71.91
2023-01-17T16:02:34.646Z,71.66
2023-01-17T16:03:34.646Z,72.18
2023-01-17T16:04:34.612Z,72.74
2023-01-17T16:05:34.616Z,74.40
2023-01-17T16:06:34.589Z,73.77
2023-01-17T16:07:34.579Z,73.98
2023-01-17T16:08:35.875Z,72.94
2023-01-17T16:09:34.553Z,73.05
2023-01-17T16:10:34.545Z,73.46
2023-01-17T16:11:34.525Z,74.19
2023-01-17T16:12:34.531Z,73.77
2023-01-17T16:13:34.528Z,74.29
2023-01-17T16:14:53.474Z,74.19
2023-01-17T16:15:35.524Z,74.19
2023-01-17T16:16:34.514Z,74.63
2023-01-17T16:17:34.473Z,74.53
2023-01-17T16:18:34.459Z,74.43
2023-01-17T16:19:34.446Z,74.74
2023-01-17T16:20:34.425Z,74.84
2023-01-17T16:21:34.410Z,74.84
2023-01-17T16:22:34.399Z,75.05
2023-01-17T16:23:34.389Z,75.15
2023-01-17T16:24:34.411Z,75.57
2023-01-17T16:25:34.375Z,75.78
2023-01-17T16:26:34.361Z,75.92
2023-01-17T16:27:34.353Z,75.57
2023-01-17T16:28:34.335Z,75.92
2023-01-17T16:29:34.334Z,75.92
2023-01-17T16:30:34.334Z,75.81
2023-01-17T16:31:34.312Z,76.02
2023-01-17T16:32:34.303Z,75.71
2023-01-17T16:33:34.290Z,75.50
2023-01-17T16:34:34.263Z,75.71
2023-01-17T16:35:34.266Z,75.81
2023-01-17T16:36:34.234Z,76.06
2023-01-17T16:37:34.243Z,76.16
2023-01-17T16:38:34.228Z,75.85
2023-01-17T16:39:34.220Z,76.16
2023-01-17T16:40:34.202Z,75.85
2023-01-17T16:41:34.183Z,75.85
2023-01-17T16:42:34.172Z,76.26
2023-01-17T16:43:34.178Z,76.16
2023-01-17T16:44:34.148Z,76.68
2023-01-17T16:45:34.137Z,76.57
2023-01-17T16:46:34.161Z,76.78
2023-01-17T16:47:34.127Z,77.03
2023-01-17T16:48:34.149Z,77.13
2023-01-17T16:49:34.108Z,77.13
2023-01-17T16:50:34.087Z,77.65
2023-01-17T16:51:34.085Z,78.27
2023-01-17T16:52:34.053Z,78.69
2023-01-17T16:53:34.062Z,78.69
2023-01-17T16:54:34.045Z,78.79
2023-01-17T16:55:34.026Z,78.58
2023-01-17T16:56:34.016Z,78.58
2023-01-17T16:57:34.017Z,78.79
2023-01-17T16:58:34.005Z,78.52
2023-01-17T16:59:49.671Z,78.72
2023-01-17T17:00:34.963Z,78.83
2023-01-17T17:01:34.073Z,78.83
2023-01-17T17:02:33.972Z,78.62
2023-01-17T17:03:33.964Z,78.72
2023-01-17T17:04:33.966Z,79.14
2023-01-17T17:05:33.927Z,79.35
2023-01-17T17:06:33.895Z,79.24
2023-01-17T17:07:33.907Z,79.03
2023-01-17T17:08:33.918Z,79.03
2023-01-17T17:09:33.865Z,79.24
2023-01-17T17:10:33.867Z,79.24
2023-01-17T17:11:33.852Z,79.03
2023-01-17T17:12:33.838Z,79.66
2023-01-17T17:13:33.835Z,79.91
2023-01-17T17:14:33.826Z,79.80
2023-01-17T17:15:33.851Z,79.69
2023-01-17T17:16:33.824Z,80.01
2023-01-17T17:17:33.786Z,79.69
2023-01-17T17:18:33.772Z,79.69
2023-01-17T17:19:33.780Z,79.59
2023-01-17T17:20:33.775Z,79.28
2023-01-17T17:21:33.758Z,79.38
2023-01-17T17:22:33.731Z,79.69
2023-01-17T17:23:33.728Z,79.80
2023-01-17T17:24:33.692Z,79.91
2023-01-17T17:25:33.686Z,80.01
2023-01-17T17:26:33.682Z,80.01
2023-01-17T17:27:33.675Z,80.98
2023-01-17T17:28:33.663Z,81.19
2023-01-17T17:29:33.653Z,81.09
2023-01-17T17:30:33.661Z,80.67
2023-01-17T17:31:33.659Z,80.98
2023-01-17T17:32:33.618Z,80.98
2023-01-17T17:33:33.611Z,80.57
2023-01-17T17:34:33.593Z,80.67
2023-01-17T17:35:33.586Z,80.67
2023-01-17T17:36:33.587Z,80.57
2023-01-17T17:37:34.562Z,80.98
2023-01-17T17:38:33.557Z,81.19
2023-01-17T17:39:33.544Z,81.19
2023-01-17T17:40:33.511Z,81.60
2023-01-17T17:41:33.517Z,81.60
2023-01-17T17:42:33.511Z,82.27
2023-01-17T17:43:33.481Z,81.40
2023-01-17T17:44:33.492Z,81.40
2023-01-17T17:45:33.475Z,81.60
2023-01-17T17:46:33.520Z,81.29
2023-01-17T17:47:33.437Z,81.54
2023-01-17T17:48:33.420Z,81.75
2023-01-17T17:49:33.430Z,81.12
2023-01-17T17:50:33.398Z,81.19
2023-01-17T17:51:33.393Z,82.17
2023-01-17T17:52:33.407Z,82.48
2023-01-17T17:53:33.389Z,83.31
2023-01-17T17:54:33.375Z,83.10
2023-01-17T17:55:33.360Z,83.20
2023-01-17T17:56:33.355Z,83.20
2023-01-17T17:57:33.325Z,83.73
2023-01-17T17:58:33.330Z,83.52
2023-01-17T17:59:33.341Z,83.20
2023-01-17T18:00:33.285Z,83.25
2023-01-17T18:01:33.448Z,83.20
2023-01-17T18:02:33.279Z,83.20
2023-01-17T18:03:33.264Z,83.42
2023-01-17T18:04:33.287Z,83.35
2023-01-17T18:05:33.234Z,83.14
2023-01-17T18:06:33.237Z,83.45
2023-01-17T18:07:33.267Z,83.97
2023-01-17T18:08:33.216Z,83.45
2023-01-17T18:09:33.220Z,84.18
2023-01-17T18:10:33.175Z,84.28
2023-01-17T18:11:33.164Z,83.87
2023-01-17T18:12:33.149Z,83.66
2023-01-17T18:13:33.142Z,84.28
2023-01-17T18:14:33.160Z,84.91
2023-01-17T18:15:33.119Z,85.12
2023-01-17T18:16:33.155Z,85.33
2023-01-17T18:17:33.108Z,85.43
2023-01-17T18:18:33.086Z,86.16
2023-01-17T18:19:33.086Z,86.47
2023-01-17T18:20:33.067Z,85.96
2023-01-17T18:21:33.055Z,86.27
2023-01-17T18:22:33.043Z,86.16
2023-01-17T18:23:33.045Z,85.96
2023-01-17T18:24:33.055Z,85.85
2023-01-17T18:25:34.147Z,85.99
2023-01-17T18:26:33.000Z,85.74
2023-01-17T18:27:32.986Z,85.68
2023-01-17T18:28:32.995Z,86.58
2023-01-17T18:29:32.971Z,85.99
2023-01-17T18:30:32.968Z,86.10
2023-01-17T18:31:33.018Z,86.83
2023-01-17T18:32:32.928Z,86.72
2023-01-17T18:33:32.913Z,85.99
2023-01-17T18:34:32.920Z,85.99
2023-01-17T18:35:32.905Z,86.83
2023-01-17T18:36:32.895Z,86.51
2023-01-17T18:37:32.880Z,87.14
2023-01-17T18:38:32.874Z,87.24
2023-01-17T18:39:32.849Z,87.04
2023-01-17T18:40:32.884Z,87.45
2023-01-17T18:41:32.829Z,87.55
2023-01-17T18:42:32.832Z,87.41
2023-01-17T18:43:32.820Z,87.24
2023-01-17T18:44:32.795Z,86.61
2023-01-17T18:45:32.806Z,87.14
2023-01-17T18:46:32.809Z,87.24
2023-01-17T18:47:32.767Z,87.45
2023-01-17T18:48:32.747Z,86.41
2023-01-17T18:49:32.757Z,86.76
2023-01-17T18:50:32.767Z,86.61
2023-01-17T18:51:32.745Z,86.76
2023-01-17T18:52:32.722Z,86.66
2023-01-17T18:53:32.698Z,86.55
2023-01-17T18:54:32.704Z,86.87
2023-01-17T18:55:32.683Z,86.66
2023-01-17T18:56:32.700Z,86.87
2023-01-17T18:57:32.672Z,86.66
2023-01-17T18:58:32.633Z,86.87
2023-01-17T18:59:32.632Z,86.76
2023-01-17T19:00:32.670Z,86.55
2023-01-17T19:01:35.354Z,86.69
2023-01-17T19:02:32.622Z,86.13
2023-01-17T19:03:32.621Z,86.49
2023-01-17T19:04:32.583Z,86.87
2023-01-17T19:05:32.571Z,86.76
2023-01-17T19:06:32.544Z,87.01
2023-01-17T19:07:32.542Z,86.69
2023-01-17T19:08:32.535Z,86.59
2023-01-17T19:09:32.518Z,87.01
2023-01-17T19:10:32.534Z,86.59
2023-01-17T19:11:32.498Z,87.12
2023-01-17T19:12:32.513Z,87.22
2023-01-17T19:13:32.494Z,87.53
2023-01-17T19:14:32.467Z,87.32
2023-01-17T19:15:32.465Z,87.32
2023-01-17T19:16:32.543Z,87.22
2023-01-17T19:17:32.431Z,87.22
2023-01-17T19:18:32.423Z,87.43
2023-01-17T19:19:32.431Z,87.68
2023-01-17T19:20:32.415Z,87.47
2023-01-17T19:21:32.389Z,87.47
2023-01-17T19:22:32.363Z,87.37
2023-01-17T19:23:32.364Z,86.94
2023-01-17T19:24:32.342Z,87.61
2023-01-17T19:25:32.359Z,87.57
2023-01-17T19:26:32.358Z,87.82
2023-01-17T19:27:32.311Z,88.30
2023-01-17T19:28:34.695Z,88.55
2023-01-17T19:29:32.282Z,88.65
2023-01-17T19:30:32.295Z,88.24
2023-01-17T19:31:32.344Z,88.76
2023-01-17T19:32:32.262Z,88.87
2023-01-17T19:33:32.258Z,89.59
2023-01-17T19:34:32.234Z,89.76
2023-01-17T19:35:32.228Z,89.66
2023-01-17T19:36:32.223Z,89.07
2023-01-17T19:37:32.191Z,90.12
2023-01-17T19:38:32.200Z,90.12
2023-01-17T19:39:32.184Z,90.53
2023-01-17T19:40:32.176Z,90.28
2023-01-17T19:41:32.140Z,90.01
2023-01-17T19:42:32.147Z,90.12
2023-01-17T19:43:32.171Z,90.64
2023-01-17T19:44:32.147Z,90.85
2023-01-17T19:45:32.242Z,90.53
2023-01-17T19:46:32.112Z,90.53
2023-01-17T19:47:32.093Z,90.43
2023-01-17T19:48:32.078Z,90.33
2023-01-17T19:49:32.068Z,90.85
2023-01-17T19:50:32.057Z,90.85
2023-01-17T19:51:32.033Z,90.60
2023-01-17T19:52:32.040Z,91.37
2023-01-17T19:53:32.010Z,91.27
2023-01-17T19:54:32.006Z,91.06
2023-01-17T19:55:32.009Z,90.95
2023-01-17T19:56:31.993Z,91.00
2023-01-17T19:57:31.987Z,90.85
2023-01-17T19:58:31.977Z,91.27
2023-01-17T19:59:31.945Z,91.27
2023-01-17T20:00:31.972Z,91.58
2023-01-17T20:01:32.256Z,91.06
2023-01-17T20:02:31.987Z,91.27
2023-01-17T20:03:31.897Z,91.58
2023-01-17T20:04:31.892Z,90.85
2023-01-17T20:05:31.901Z,91.20
2023-01-17T20:06:31.891Z,91.52
2023-01-17T20:07:31.869Z,91.20
2023-01-17T20:08:31.861Z,91.00
2023-01-17T20:09:31.834Z,91.20
2023-01-17T20:10:31.840Z,91.69
2023-01-17T20:11:31.830Z,91.16
2023-01-17T20:12:31.813Z,91.62
2023-01-17T20:13:31.807Z,91.41
2023-01-17T20:14:31.780Z,91.31
2023-01-17T20:15:31.778Z,91.52
2023-01-17T20:16:31.880Z,91.62
2023-01-17T20:17:33.881Z,91.10
2023-01-17T20:18:31.749Z,91.52
2023-01-17T20:19:31.735Z,91.62
2023-01-17T20:20:31.733Z,90.78
2023-01-17T20:21:31.714Z,91.52
2023-01-17T20:22:31.693Z,91.62
2023-01-17T20:23:31.670Z,91.56
2023-01-17T20:24:31.680Z,91.10
2023-01-17T20:25:31.662Z,91.20
2023-01-17T20:26:31.700Z,91.10
2023-01-17T20:27:31.642Z,91.14
2023-01-17T20:28:31.619Z,91.00
2023-01-17T20:29:31.607Z,91.03
2023-01-17T20:30:31.595Z,91.14
2023-01-17T20:31:31.645Z,91.25
2023-01-17T20:32:31.596Z,90.93
2023-01-17T20:33:31.573Z,91.14
2023-01-17T20:34:31.569Z,90.83
2023-01-17T20:35:31.552Z,90.93
2023-01-17T20:36:31.543Z,91.14